Time;durP1;ratioP1;P1;durP2;ratioP2;P2;SDS_P1;SDS_P2;PMS_P1;PMS_P2;Temp;Humidity;BMP_temperature;BMP_pressure;BME280_temperature;BME280_humidity;BME280_pressure;Samples;Min_cycle;Max_cycle;Signal;HPM_P1;HPM_P2
2024/01/02 00:00:30;;;;;;;7.43;5.10;;;;;;;;;;5051658;28;20568;-76
2024/01/02 00:02:56;;;;;;;6.18;4.93;;;;;;;;;;5054770;28;20627;-76
2024/01/02 00:05:22;;;;;;;5.53;5.03;;;;;;;;;;5044400;28;20064;-77
2024/01/02 00:07:47;;;;;;;5.78;5.20;;;;;;;;;;5056051;28;20486;-77
2024/01/02 00:10:14;;;;;;;5.50;5.10;;;;;;;;;;5053688;28;20040;-77
2024/01/02 00:12:40;;;;;;;5.93;5.53;;;;;;;;;;5051627;28;20039;-77
2024/01/02 00:15:06;;;;;;;6.20;5.70;;;;;;;;;;5058948;28;20047;-77
2024/01/02 00:17:32;;;;;;;5.28;4.93;;;;;;;;;;5056300;28;20029;-77
2024/01/02 00:19:58;;;;;;;5.22;4.88;;;;;;;;;;5027611;28;20036;-77
2024/01/02 00:22:24;;;;;;;6.05;5.50;;;;;;;;;;5059759;28;20036;-77
2024/01/02 00:24:49;;;;;;;5.70;5.20;;;;;;;;;;5053909;28;20046;-77
2024/01/02 00:27:15;;;;;;;9.18;5.30;;;;;;;;;;5055549;28;20610;-77
2024/01/02 00:29:40;;;;;;;4.88;4.57;;;;;;;;;;5023983;28;20037;-77
2024/01/02 00:32:06;;;;;;;5.40;4.90;;;;;;;;;;5054965;28;20122;-77
2024/01/02 00:34:32;;;;;;;5.40;5.07;;;;;;;;;;5042757;28;20067;-77
2024/01/02 00:36:57;;;;;;;5.28;4.65;;;;;;;;;;5055326;28;20514;-77
2024/01/02 00:39:23;;;;;;;5.65;4.88;;;;;;;;;;5042487;28;20042;-77
2024/01/02 00:41:49;;;;;;;5.93;5.43;;;;;;;;;;5042065;28;20104;-77
2024/01/02 00:44:15;;;;;;;5.93;5.30;;;;;;;;;;5051433;28;20066;-77
2024/01/02 00:46:41;;;;;;;6.15;5.55;;;;;;;;;;5042184;28;20036;-77
2024/01/02 00:49:06;;;;;;;5.32;5.03;;;;;;;;;;5038343;28;20037;-77
2024/01/02 00:51:32;;;;;;;6.18;5.70;;;;;;;;;;5037462;28;20043;-77
2024/01/02 00:53:59;;;;;;;7.47;5.85;;;;;;;;;;5055052;28;20032;-77
2024/01/02 00:56:24;;;;;;;5.65;5.25;;;;;;;;;;5055559;28;20861;-77
2024/01/02 00:58:51;;;;;;;5.53;5.03;;;;;;;;;;5052294;28;20068;-77
2024/01/02 01:01:19;;;;;;;5.40;5.00;;;;;;;;;;5056463;28;20063;-77
2024/01/02 01:03:45;;;;;;;6.20;5.40;;;;;;;;;;5026902;28;21699;-77
2024/01/02 01:06:11;;;;;;;7.90;5.05;;;;;;;;;;5039938;28;20058;-77
2024/01/02 01:08:36;;;;;;;5.75;5.25;;;;;;;;;;5040704;28;20405;-77
2024/01/02 01:11:03;;;;;;;5.20;4.90;;;;;;;;;;5040636;28;20039;-77
2024/01/02 01:13:28;;;;;;;5.80;5.30;;;;;;;;;;5057930;28;20037;-77
2024/01/02 01:15:54;;;;;;;5.25;4.95;;;;;;;;;;5043295;28;20036;-77
2024/01/02 01:18:19;;;;;;;5.40;5.00;;;;;;;;;;5055614;28;20105;-77
2024/01/02 01:20:45;;;;;;;5.80;5.22;;;;;;;;;;5049786;28;20562;-77
2024/01/02 01:23:11;;;;;;;5.93;5.50;;;;;;;;;;5031990;28;20132;-77
2024/01/02 01:25:37;;;;;;;5.28;4.93;;;;;;;;;;5038282;28;20047;-77
2024/01/02 01:28:03;;;;;;;5.50;5.10;;;;;;;;;;5039902;28;20452;-77
2024/01/02 01:30:29;;;;;;;5.43;5.03;;;;;;;;;;5047619;28;20032;-77
2024/01/02 01:32:55;;;;;;;6.93;5.25;;;;;;;;;;5039066;28;20044;-77
2024/01/02 01:35:21;;;;;;;5.80;5.30;;;;;;;;;;5043155;28;20702;-77
2024/01/02 01:37:47;;;;;;;6.03;5.53;;;;;;;;;;5040501;28;20147;-77
2024/01/02 01:40:12;;;;;;;4.97;4.78;;;;;;;;;;5040397;28;20040;-77
2024/01/02 01:42:38;;;;;;;5.78;5.30;;;;;;;;;;5057516;28;20070;-77
2024/01/02 01:45:04;;;;;;;5.53;5.10;;;;;;;;;;5041466;28;20033;-77
2024/01/02 01:47:30;;;;;;;5.40;5.10;;;;;;;;;;5037918;28;20087;-77
2024/01/02 01:49:56;;;;;;;5.70;5.20;;;;;;;;;;5052437;28;20519;-77
2024/01/02 01:52:21;;;;;;;5.57;5.20;;;;;;;;;;5038738;28;20053;-77
2024/01/02 01:54:47;;;;;;;5.78;5.10;;;;;;;;;;5054874;28;20036;-77
2024/01/02 01:57:13;;;;;;;5.53;5.03;;;;;;;;;;5039773;28;20040;-77
2024/01/02 01:59:41;;;;;;;5.03;4.72;;;;;;;;;;5041375;28;20037;-77
2024/01/02 02:02:07;;;;;;;5.32;5.03;;;;;;;;;;5043507;28;20036;-77
2024/01/02 02:04:36;;;;;;;5.30;5.00;;;;;;;;;;5040635;28;20041;-77
2024/01/02 02:07:02;;;;;;;5.37;5.07;;;;;;;;;;5042392;28;20039;-77
2024/01/02 02:09:28;;;;;;;6.63;5.43;;;;;;;;;;5054545;28;20037;-77
2024/01/02 02:11:54;;;;;;;6.30;5.80;;;;;;;;;;5038951;28;20055;-77
2024/01/02 02:14:20;;;;;;;6.40;5.90;;;;;;;;;;5054359;28;20040;-77
2024/01/02 02:16:45;;;;;;;6.55;5.90;;;;;;;;;;5052191;28;20036;-77
2024/01/02 02:19:11;;;;;;;7.15;5.97;;;;;;;;;;5039782;28;20036;-77
2024/01/02 02:21:38;;;;;;;7.85;5.97;;;;;;;;;;5041674;28;20040;-77
2024/01/02 02:24:04;;;;;;;6.57;5.97;;;;;;;;;;5040107;28;20043;-77
2024/01/02 02:26:30;;;;;;;7.25;6.18;;;;;;;;;;5044694;28;20025;-77
2024/01/02 02:28:55;;;;;;;6.00;5.50;;;;;;;;;;5041023;28;20052;-77
2024/01/02 02:31:21;;;;;;;5.97;5.50;;;;;;;;;;5055202;28;20041;-77
2024/01/02 02:33:46;;;;;;;6.13;5.68;;;;;;;;;;5038405;28;20028;-77
2024/01/02 02:36:13;;;;;;;5.97;5.47;;;;;;;;;;5047916;28;20128;-77
2024/01/02 02:38:39;;;;;;;6.03;5.53;;;;;;;;;;5057503;28;20058;-77
2024/01/02 02:41:05;;;;;;;5.55;5.05;;;;;;;;;;5038260;28;20036;-77
2024/01/02 02:43:30;;;;;;;7.28;6.57;;;;;;;;;;5037662;28;20071;-77
2024/01/02 02:45:56;;;;;;;6.65;6.10;;;;;;;;;;5032802;28;20044;-77
2024/01/02 02:48:22;;;;;;;6.53;6.00;;;;;;;;;;5038060;28;20653;-77
2024/01/02 02:50:48;;;;;;;6.15;5.35;;;;;;;;;;5025996;28;20028;-77
2024/01/02 02:53:14;;;;;;;5.75;5.45;;;;;;;;;;5038226;28;20032;-77
2024/01/02 02:55:40;;;;;;;5.38;4.97;;;;;;;;;;5054143;28;20798;-77
2024/01/02 02:58:05;;;;;;;5.20;4.90;;;;;;;;;;5059247;28;20102;-76
2024/01/02 03:00:34;;;;;;;5.13;4.82;;;;;;;;;;5035548;28;20043;-77
2024/01/02 03:03:00;;;;;;;6.00;5.50;;;;;;;;;;5049396;28;20139;-77
2024/01/02 03:05:26;;;;;;;5.50;5.20;;;;;;;;;;5056586;28;20119;-77
2024/01/02 03:07:51;;;;;;;5.70;5.30;;;;;;;;;;5039387;28;20482;-77
2024/01/02 03:10:17;;;;;;;6.35;5.95;;;;;;;;;;5041303;28;20040;-77
2024/01/02 03:12:44;;;;;;;5.50;5.20;;;;;;;;;;5033184;28;20029;-77
2024/01/02 03:15:09;;;;;;;5.78;5.40;;;;;;;;;;5038758;28;20051;-77
2024/01/02 03:17:35;;;;;;;5.32;5.10;;;;;;;;;;5051916;28;20048;-77
2024/01/02 03:20:02;;;;;;;5.10;4.90;;;;;;;;;;5053033;28;20433;-77
2024/01/02 03:22:28;;;;;;;5.70;5.40;;;;;;;;;;5034849;28;20068;-77
2024/01/02 03:24:54;;;;;;;5.78;5.45;;;;;;;;;;5059703;28;20559;-77
2024/01/02 03:27:19;;;;;;;5.55;5.15;;;;;;;;;;5059098;28;20041;-77
2024/01/02 03:29:45;;;;;;;5.20;5.00;;;;;;;;;;5054168;28;20036;-77
2024/01/02 03:32:11;;;;;;;5.38;5.18;;;;;;;;;;5042278;28;20110;-77
2024/01/02 03:34:37;;;;;;;5.45;5.18;;;;;;;;;;5052197;28;20491;-77
2024/01/02 03:37:03;;;;;;;5.70;5.40;;;;;;;;;;5058903;28;20040;-77
2024/01/02 03:39:29;;;;;;;5.50;5.20;;;;;;;;;;5055980;28;20039;-77
2024/01/02 03:41:54;;;;;;;5.70;5.40;;;;;;;;;;5054660;28;20037;-77
2024/01/02 03:44:20;;;;;;;5.70;5.40;;;;;;;;;;5030039;28;20139;-76
2024/01/02 03:46:46;;;;;;;5.50;5.20;;;;;;;;;;5041396;28;20040;-77
2024/01/02 03:49:11;;;;;;;6.28;5.78;;;;;;;;;;5060405;28;20050;-77
2024/01/02 03:51:37;;;;;;;5.88;5.32;;;;;;;;;;5055427;28;20028;-77
2024/01/02 03:54:03;;;;;;;5.80;5.50;;;;;;;;;;5043605;28;20401;-76
2024/01/02 03:56:28;;;;;;;5.35;5.05;;;;;;;;;;5044008;28;20037;-77
2024/01/02 03:58:54;;;;;;;5.70;5.40;;;;;;;;;;5041490;28;20036;-77
2024/01/02 04:01:20;;;;;;;8.73;5.10;;;;;;;;;;5056452;28;20171;-76
2024/01/02 04:03:46;;;;;;;5.18;4.97;;;;;;;;;;5051224;28;20028;-77
2024/01/02 04:06:12;;;;;;;5.80;5.50;;;;;;;;;;5038050;28;20040;-77
2024/01/02 04:08:40;;;;;;;5.35;5.13;;;;;;;;;;5053679;28;20032;-77
2024/01/02 04:11:05;;;;;;;6.00;5.60;;;;;;;;;;5047767;28;20072;-77
2024/01/02 04:13:31;;;;;;;5.78;5.47;;;;;;;;;;5057163;28;20148;-77
2024/01/02 04:15:56;;;;;;;5.75;5.45;;;;;;;;;;5053855;28;20040;-76
2024/01/02 04:18:22;;;;;;;6.10;5.80;;;;;;;;;;5054488;28;20119;-76
2024/01/02 04:20:47;;;;;;;5.45;5.15;;;;;;;;;;5048325;28;20040;-76
2024/01/02 04:23:13;;;;;;;5.45;5.18;;;;;;;;;;5039485;28;20347;-76
2024/01/02 04:25:38;;;;;;;5.40;5.10;;;;;;;;;;5054575;28;20037;-76
2024/01/02 04:28:04;;;;;;;5.68;5.38;;;;;;;;;;5053727;28;20035;-76
2024/01/02 04:30:30;;;;;;;5.80;5.50;;;;;;;;;;5052965;28;20032;-76
2024/01/02 04:32:56;;;;;;;6.22;5.82;;;;;;;;;;5049553;28;20422;-76
2024/01/02 04:35:21;;;;;;;5.50;5.20;;;;;;;;;;5032423;28;20779;-76
2024/01/02 04:37:47;;;;;;;5.35;5.13;;;;;;;;;;5035455;28;20029;-76
2024/01/02 04:40:12;;;;;;;5.47;5.18;;;;;;;;;;5053891;28;20044;-76
2024/01/02 04:42:38;;;;;;;5.55;5.25;;;;;;;;;;5049343;28;20494;-76
2024/01/02 04:45:05;;;;;;;5.47;5.22;;;;;;;;;;5053967;28;20046;-76
2024/01/02 04:47:31;;;;;;;5.13;4.82;;;;;;;;;;5046405;28;22613;-75
2024/01/02 04:49:57;;;;;;;5.50;5.20;;;;;;;;;;5053022;28;20047;-76
2024/01/02 04:52:23;;;;;;;5.10;4.90;;;;;;;;;;5053290;28;20032;-76
2024/01/02 04:54:49;;;;;;;5.70;5.30;;;;;;;;;;5038813;28;20371;-76
2024/01/02 04:57:15;;;;;;;5.80;5.47;;;;;;;;;;5033167;28;20044;-76
2024/01/02 04:59:41;;;;;;;5.53;5.13;;;;;;;;;;5052433;28;20035;-76
2024/01/02 05:02:06;;;;;;;5.63;5.35;;;;;;;;;;5059910;28;20028;-76
2024/01/02 05:04:33;;;;;;;5.70;5.40;;;;;;;;;;5059041;28;20047;-76
2024/01/02 05:07:00;;;;;;;5.75;5.45;;;;;;;;;;5054164;28;20068;-75
2024/01/02 05:09:27;;;;;;;5.35;5.10;;;;;;;;;;5054051;28;20037;-76
2024/01/02 05:11:54;;;;;;;5.20;5.00;;;;;;;;;;5061114;28;20036;-76
2024/01/02 05:14:19;;;;;;;5.93;5.63;;;;;;;;;;5041528;28;20043;-75
2024/01/02 05:16:45;;;;;;;5.53;5.28;;;;;;;;;;5057455;28;20024;-76
2024/01/02 05:19:10;;;;;;;6.20;5.90;;;;;;;;;;5162708;22;20131;-79
2024/01/02 05:21:36;;;;;;;6.18;5.82;;;;;;;;;;5080397;28;20087;-78
2024/01/02 05:24:02;;;;;;;5.80;5.50;;;;;;;;;;5084971;28;20487;-78
2024/01/02 05:26:28;;;;;;;5.78;5.47;;;;;;;;;;5084805;28;20028;-79
2024/01/02 05:28:54;;;;;;;5.60;5.30;;;;;;;;;;5081262;28;20044;-78
2024/01/02 05:31:20;;;;;;;5.55;5.25;;;;;;;;;;5084054;28;20201;-78
2024/01/02 05:33:45;;;;;;;6.10;5.60;;;;;;;;;;5084211;28;20795;-79
2024/01/02 05:36:11;;;;;;;5.95;5.55;;;;;;;;;;5083108;28;21026;-79
2024/01/02 05:38:36;;;;;;;5.93;5.63;;;;;;;;;;5083689;28;20687;-78
2024/01/02 05:41:02;;;;;;;6.28;5.97;;;;;;;;;;5083562;28;20028;-78
2024/01/02 05:43:28;;;;;;;6.05;5.75;;;;;;;;;;5086078;28;20035;-78
2024/01/02 05:45:53;;;;;;;5.70;5.40;;;;;;;;;;5059609;28;20055;-79
2024/01/02 05:48:19;;;;;;;5.80;5.50;;;;;;;;;;5084366;28;20071;-78
2024/01/02 05:50:45;;;;;;;6.03;5.72;;;;;;;;;;5084890;28;20436;-79
2024/01/02 05:53:10;;;;;;;6.15;5.85;;;;;;;;;;5081364;28;20042;-79
2024/01/02 05:55:39;;;;;;;6.35;5.95;;;;;;;;;;5080590;28;20032;-78
2024/01/02 05:58:04;;;;;;;6.65;6.28;;;;;;;;;;5085396;28;20033;-78
2024/01/02 06:00:30;;;;;;;6.35;6.03;;;;;;;;;;5086437;28;20032;-79
2024/01/02 06:02:56;;;;;;;6.25;5.95;;;;;;;;;;5065404;28;20056;-78
2024/01/02 06:05:22;;;;;;;6.00;5.68;;;;;;;;;;5082198;28;20027;-79
2024/01/02 06:07:47;;;;;;;6.10;5.80;;;;;;;;;;5067540;28;20122;-78
2024/01/02 06:10:13;;;;;;;6.72;6.03;;;;;;;;;;5085015;28;20032;-79
2024/01/02 06:12:39;;;;;;;6.25;5.85;;;;;;;;;;5076828;28;20032;-78
2024/01/02 06:15:05;;;;;;;6.30;6.00;;;;;;;;;;5082506;28;20039;-79
2024/01/02 06:17:30;;;;;;;5.90;5.60;;;;;;;;;;5069569;28;20200;-79
2024/01/02 06:19:56;;;;;;;6.15;5.75;;;;;;;;;;5084871;28;20043;-78
2024/01/02 06:22:22;;;;;;;6.05;5.75;;;;;;;;;;5060671;28;21724;-78
2024/01/02 06:24:47;;;;;;;5.30;5.00;;;;;;;;;;5046788;28;20035;-78
2024/01/02 06:27:13;;;;;;;5.43;5.15;;;;;;;;;;5073516;28;20078;-78
2024/01/02 06:29:39;;;;;;;5.63;5.32;;;;;;;;;;5080732;28;20028;-78
2024/01/02 06:32:05;;;;;;;5.70;5.40;;;;;;;;;;5084754;28;20047;-78
2024/01/02 06:34:31;;;;;;;5.78;5.47;;;;;;;;;;5082239;28;20040;-77
2024/01/02 06:36:57;;;;;;;5.60;5.30;;;;;;;;;;5081045;28;20047;-77
2024/01/02 06:39:22;;;;;;;6.30;6.00;;;;;;;;;;5058902;28;20032;-78
2024/01/02 06:41:48;;;;;;;5.70;5.40;;;;;;;;;;5061628;28;20584;-78
2024/01/02 06:44:14;;;;;;;5.40;5.20;;;;;;;;;;5083061;28;20054;-78
2024/01/02 06:46:39;;;;;;;5.75;5.45;;;;;;;;;;5063459;28;20036;-77
2024/01/02 06:49:05;;;;;;;5.80;5.50;;;;;;;;;;5081347;28;20119;-78
2024/01/02 06:51:31;;;;;;;5.40;5.20;;;;;;;;;;5081790;28;20119;-78
2024/01/02 06:53:57;;;;;;;5.88;5.57;;;;;;;;;;5083176;28;20107;-78
2024/01/02 06:56:22;;;;;;;5.72;5.43;;;;;;;;;;5080992;28;20024;-78
2024/01/02 06:58:48;;;;;;;5.80;5.50;;;;;;;;;;5080610;28;20039;-78
2024/01/02 07:01:15;;;;;;;6.00;5.70;;;;;;;;;;5058046;28;20039;-79
2024/01/02 07:03:40;;;;;;;5.80;5.50;;;;;;;;;;5082265;28;20054;-78
2024/01/02 07:06:06;;;;;;;6.05;5.75;;;;;;;;;;5076473;28;20040;-78
2024/01/02 07:08:32;;;;;;;6.00;5.70;;;;;;;;;;5062271;28;20058;-78
2024/01/02 07:10:57;;;;;;;5.80;5.40;;;;;;;;;;5077797;28;20036;-78
2024/01/02 07:13:23;;;;;;;5.82;5.53;;;;;;;;;;5065582;28;20031;-78
2024/01/02 07:15:49;;;;;;;6.22;5.93;;;;;;;;;;5060768;28;20044;-78
2024/01/02 07:18:15;;;;;;;6.13;5.82;;;;;;;;;;5082621;28;20032;-78
2024/01/02 07:20:41;;;;;;;5.82;5.53;;;;;;;;;;5081646;28;20771;-78
2024/01/02 07:23:06;;;;;;;5.68;5.38;;;;;;;;;;5061342;28;20041;-78
2024/01/02 07:25:32;;;;;;;5.88;5.57;;;;;;;;;;5081183;28;20162;-78
2024/01/02 07:27:58;;;;;;;5.72;5.43;;;;;;;;;;5047751;28;20569;-79
2024/01/02 07:30:24;;;;;;;6.00;5.70;;;;;;;;;;5082717;28;20956;-79
2024/01/02 07:32:49;;;;;;;5.85;5.55;;;;;;;;;;5081692;28;20039;-78
2024/01/02 07:35:15;;;;;;;6.05;5.75;;;;;;;;;;5062959;28;20090;-78
2024/01/02 07:37:40;;;;;;;6.43;6.13;;;;;;;;;;5058702;28;20468;-78
2024/01/02 07:40:07;;;;;;;5.70;5.30;;;;;;;;;;5081806;28;20029;-78
2024/01/02 07:42:33;;;;;;;5.45;5.25;;;;;;;;;;5061573;28;20028;-78
2024/01/02 07:44:59;;;;;;;6.07;5.78;;;;;;;;;;5077955;28;20043;-77
2024/01/02 07:47:25;;;;;;;6.03;5.72;;;;;;;;;;5078268;28;20045;-78
2024/01/02 07:49:51;;;;;;;5.88;5.57;;;;;;;;;;5081837;28;20111;-79
2024/01/02 07:52:18;;;;;;;6.25;5.95;;;;;;;;;;5082880;28;20181;-78
2024/01/02 07:54:43;;;;;;;6.53;5.97;;;;;;;;;;5082227;28;20374;-78
2024/01/02 07:57:09;;;;;;;6.05;5.75;;;;;;;;;;5066431;28;20081;-78
2024/01/02 07:59:34;;;;;;;6.13;5.82;;;;;;;;;;5079530;28;20040;-78
2024/01/02 08:02:00;;;;;;;6.10;5.80;;;;;;;;;;5081847;28;20032;-78
2024/01/02 08:04:26;;;;;;;6.10;5.80;;;;;;;;;;5085195;28;20036;-78
2024/01/02 08:06:51;;;;;;;6.30;5.90;;;;;;;;;;5095280;28;20115;-78
2024/01/02 08:09:17;;;;;;;6.32;6.03;;;;;;;;;;5063831;28;20048;-78
2024/01/02 08:11:42;;;;;;;6.10;5.80;;;;;;;;;;5087094;28;20038;-77
2024/01/02 08:14:08;;;;;;;6.30;6.00;;;;;;;;;;5069845;28;20050;-78
2024/01/02 08:16:34;;;;;;;6.07;5.78;;;;;;;;;;5089757;28;20039;-78
2024/01/02 08:19:00;;;;;;;6.10;5.80;;;;;;;;;;5092459;28;20071;-78
2024/01/02 08:21:27;;;;;;;6.97;5.95;;;;;;;;;;5093480;28;20311;-78
2024/01/02 08:23:53;;;;;;;5.80;5.50;;;;;;;;;;5070794;28;20100;-78
2024/01/02 08:26:18;;;;;;;5.82;5.53;;;;;;;;;;5088365;28;20035;-78
2024/01/02 08:28:44;;;;;;;6.03;5.72;;;;;;;;;;5068732;28;21177;-78
2024/01/02 08:31:09;;;;;;;6.68;6.18;;;;;;;;;;5075350;28;20032;-78
2024/01/02 08:33:35;;;;;;;6.30;6.00;;;;;;;;;;5066444;28;20065;-79
2024/01/02 08:36:01;;;;;;;6.45;6.07;;;;;;;;;;5086951;28;20108;-78
2024/01/02 08:38:26;;;;;;;6.32;6.03;;;;;;;;;;5061323;28;20039;-78
2024/01/02 08:40:52;;;;;;;6.55;6.15;;;;;;;;;;5081313;28;20040;-78
2024/01/02 08:43:17;;;;;;;6.25;5.95;;;;;;;;;;5072530;28;20040;-78
2024/01/02 08:45:44;;;;;;;6.13;5.82;;;;;;;;;;5076302;28;20040;-78
2024/01/02 08:48:12;;;;;;;6.55;6.25;;;;;;;;;;5082698;28;20027;-78
2024/01/02 08:50:44;;;;;;;6.20;5.90;;;;;;;;;;5078867;28;20614;-79
2024/01/02 08:53:11;;;;;;;6.20;5.90;;;;;;;;;;5064109;28;20127;-78
2024/01/02 08:55:37;;;;;;;6.45;6.15;;;;;;;;;;5084505;28;20028;-78
2024/01/02 08:58:03;;;;;;;6.70;6.30;;;;;;;;;;5084221;28;20749;-78
2024/01/02 09:00:30;;;;;;;6.68;6.38;;;;;;;;;;5074269;28;20048;-79
2024/01/02 09:02:55;;;;;;;6.18;5.88;;;;;;;;;;5059626;28;20058;-78
2024/01/02 09:05:21;;;;;;;6.43;6.03;;;;;;;;;;5075567;28;20028;-78
2024/01/02 09:07:46;;;;;;;6.63;6.25;;;;;;;;;;5081984;28;20051;-79
2024/01/02 09:10:13;;;;;;;6.78;6.30;;;;;;;;;;5080559;28;20065;-79
2024/01/02 09:12:39;;;;;;;6.20;5.90;;;;;;;;;;5043944;28;20124;-79
2024/01/02 09:15:06;;;;;;;6.43;6.03;;;;;;;;;;5083647;28;20449;-79
2024/01/02 09:17:32;;;;;;;6.50;6.10;;;;;;;;;;5084643;28;20635;-78
2024/01/02 09:19:57;;;;;;;6.18;5.88;;;;;;;;;;5079541;28;20040;-78
2024/01/02 09:22:23;;;;;;;6.15;5.85;;;;;;;;;;5061615;28;20047;-78
2024/01/02 09:24:52;;;;;;;6.38;6.07;;;;;;;;;;5080735;28;20031;-78
2024/01/02 09:27:19;;;;;;;5.80;5.40;;;;;;;;;;5065383;28;20501;-78
2024/01/02 09:29:45;;;;;;;6.07;5.70;;;;;;;;;;5078938;28;20451;-77
2024/01/02 09:32:11;;;;;;;6.65;6.25;;;;;;;;;;5084378;28;20093;-79
2024/01/02 09:34:37;;;;;;;5.90;5.60;;;;;;;;;;5085207;28;20112;-79
2024/01/02 09:37:06;;;;;;;6.15;5.65;;;;;;;;;;5087802;28;20359;-78
2024/01/02 09:39:31;;;;;;;6.03;5.72;;;;;;;;;;5084316;28;20051;-78
2024/01/02 09:42:21;;;;;;;5.93;5.63;;;;;;;;;;5080126;28;20599;-79
2024/01/02 09:47:55;;;;;;;6.30;6.00;;;;;;;;;;5011066;28;20359;-69
2024/01/02 10:12:19;;;;;;;6.32;6.00;;;;;;;;;;5060092;27;21064;-69
2024/01/02 10:14:57;;;;;;;6.60;6.25;;;;;;;;;;5059948;28;20048;-66
2024/01/02 10:17:57;;;;;;;6.57;6.00;;;;;;;;;;5056521;28;20104;-67
2024/01/02 10:20:48;;;;;;;6.30;6.00;;;;;;;;;;5057691;28;20728;-66
2024/01/02 10:23:23;;;;;;;6.90;6.50;;;;;;;;;;5055692;28;20079;-67
2024/01/02 10:25:54;;;;;;;6.80;6.50;;;;;;;;;;5056485;28;20044;-67
2024/01/02 10:28:25;;;;;;;6.50;6.20;;;;;;;;;;5058121;28;20044;-67
2024/01/02 10:31:13;;;;;;;7.07;6.68;;;;;;;;;;5052364;28;20017;-67
2024/01/02 10:33:53;;;;;;;6.55;6.00;;;;;;;;;;5060557;28;20115;-67
2024/01/02 10:36:22;;;;;;;6.63;6.32;;;;;;;;;;5056772;28;20107;-67
2024/01/02 10:38:57;;;;;;;;;;;;;;;;;;5055549;28;20037;-67
2024/01/02 10:41:25;;;;;;;6.30;5.90;;;;;;;;;;5052014;28;20083;-67
2024/01/02 10:44:09;;;;;;;6.10;5.80;;;;;;;;;;5037063;28;20040;-68
2024/01/02 10:46:55;;;;;;;6.72;6.10;;;;;;;;;;5056573;28;20392;-67
2024/01/02 10:49:44;;;;;;;6.45;6.15;;;;;;;;;;5035088;28;20043;-68
2024/01/02 10:52:19;;;;;;;6.55;6.15;;;;;;;;;;5052965;28;20036;-67
2024/01/02 10:55:19;;;;;;;6.10;5.80;;;;;;;;;;5052319;28;20041;-67
2024/01/02 10:58:00;;;;;;;6.55;6.15;;;;;;;;;;5055187;28;20044;-68
2024/01/02 11:00:31;;;;;;;6.30;6.00;;;;;;;;;;5053592;28;20029;-68
2024/01/02 11:03:04;;;;;;;6.50;6.20;;;;;;;;;;5051238;28;20058;-68
2024/01/02 11:05:34;;;;;;;6.75;6.35;;;;;;;;;;5036247;28;20064;-68
2024/01/02 11:08:21;;;;;;;6.68;6.30;;;;;;;;;;5034077;28;20095;-68
2024/01/02 11:11:00;;;;;;;6.32;6.00;;;;;;;;;;5054589;28;20632;-68
2024/01/02 11:13:27;;;;;;;7.30;6.60;;;;;;;;;;5054937;28;20064;-68
2024/01/02 11:15:58;;;;;;;6.35;6.05;;;;;;;;;;5059569;28;20691;-68
2024/01/02 11:18:27;;;;;;;6.18;5.85;;;;;;;;;;5062450;28;20078;-68
2024/01/02 11:21:17;;;;;;;6.53;6.22;;;;;;;;;;5056922;28;20033;-68
2024/01/02 11:23:46;;;;;;;6.72;6.40;;;;;;;;;;5043829;28;20522;-68
2024/01/02 11:26:24;;;;;;;6.45;6.13;;;;;;;;;;5038578;28;20422;-68
2024/01/02 11:28:52;;;;;;;6.20;5.90;;;;;;;;;;5044147;28;20036;-68
2024/01/02 11:31:20;;;;;;;6.20;5.90;;;;;;;;;;5041417;28;20033;-68
2024/01/02 11:34:04;;;;;;;6.57;6.18;;;;;;;;;;5047193;28;20025;-68
2024/01/02 11:36:47;;;;;;;6.43;6.13;;;;;;;;;;5042782;28;20044;-68
2024/01/02 11:39:35;;;;;;;7.10;6.70;;;;;;;;;;5020918;28;20535;-68
2024/01/02 11:42:12;;;;;;;7.00;6.60;;;;;;;;;;5038904;28;20456;-68
2024/01/02 11:45:08;;;;;;;6.60;6.30;;;;;;;;;;5021248;28;20110;-68
2024/01/02 11:48:59;;;;;;;6.95;6.47;;;;;;;;;;5076401;27;20382;-67
2024/01/02 11:51:29;;;;;;;6.85;6.55;;;;;;;;;;5074476;28;20084;-69
2024/01/02 11:54:10;;;;;;;7.20;6.80;;;;;;;;;;5078201;28;20135;-66
2024/01/02 11:56:36;;;;;;;7.20;6.80;;;;;;;;;;5076212;28;20032;-66
2024/01/02 11:59:11;;;;;;;6.80;6.40;;;;;;;;;;5071474;28;20041;-66
2024/01/02 12:01:49;;;;;;;7.55;7.05;;;;;;;;;;5084122;28;20036;-66
2024/01/02 12:04:52;;;;;;;7.07;6.78;;;;;;;;;;5068011;28;20036;-66
2024/01/02 12:07:25;;;;;;;7.15;6.80;;;;;;;;;;5075801;28;20028;-66
2024/01/02 12:09:53;;;;;;;35.90;8.32;;;;;;;;;;5066609;28;20047;-66
2024/01/02 12:12:31;;;;;;;8.38;6.95;;;;;;;;;;5071030;28;20037;-66
2024/01/02 12:15:08;;;;;;;10.40;7.80;;;;;;;;;;5072987;28;20553;-66
2024/01/02 12:17:58;;;;;;;9.82;7.00;;;;;;;;;;5073599;28;20510;-67
2024/01/02 12:20:24;;;;;;;17.75;7.38;;;;;;;;;;5069582;28;20047;-66
2024/01/02 12:22:51;;;;;;;7.88;7.25;;;;;;;;;;5070528;28;20144;-66
2024/01/02 12:25:17;;;;;;;17.00;8.35;;;;;;;;;;5066791;28;20040;-66
2024/01/02 12:27:46;;;;;;;32.05;9.40;;;;;;;;;;5053432;28;20037;-67
2024/01/02 12:30:22;;;;;;;7.30;6.80;;;;;;;;;;5076342;28;20036;-66
2024/01/02 12:32:54;;;;;;;6.90;6.50;;;;;;;;;;5070964;28;20040;-67
2024/01/02 12:35:31;;;;;;;6.75;6.45;;;;;;;;;;5071118;28;20040;-67
2024/01/02 12:38:18;;;;;;;7.10;6.80;;;;;;;;;;5053387;28;20127;-67
2024/01/02 12:40:46;;;;;;;18.85;7.90;;;;;;;;;;5071868;28;20754;-67
2024/01/02 12:43:25;;;;;;;7.60;7.07;;;;;;;;;;5076800;28;20043;-66
2024/01/02 12:46:20;;;;;;;8.55;7.43;;;;;;;;;;5069135;28;20607;-66
2024/01/02 12:48:56;;;;;;;7.50;6.93;;;;;;;;;;5069706;28;20052;-66
2024/01/02 12:51:28;;;;;;;8.07;7.30;;;;;;;;;;5070291;28;20036;-67
2024/01/02 12:53:54;;;;;;;7.82;6.80;;;;;;;;;;5074629;28;20040;-67
2024/01/02 12:56:24;;;;;;;7.25;6.88;;;;;;;;;;5071373;28;20032;-67
2024/01/02 12:58:50;;;;;;;;;;;;;;;;;;5058650;28;20040;-67
2024/01/02 13:01:16;;;;;;;7.00;6.70;;;;;;;;;;5055201;28;19916;-67
2024/01/02 13:03:47;;;;;;;7.05;6.55;;;;;;;;;;5059810;28;20049;-67
2024/01/02 13:06:14;;;;;;;7.05;6.65;;;;;;;;;;5055607;28;20054;-67
2024/01/02 13:08:39;;;;;;;7.78;7.15;;;;;;;;;;5054557;28;20048;-67
2024/01/02 13:11:05;;;;;;;12.80;7.07;;;;;;;;;;5051143;28;20665;-68
2024/01/02 13:13:31;;;;;;;7.30;6.90;;;;;;;;;;5056335;28;20048;-67
2024/01/02 13:16:00;;;;;;;8.57;8.02;;;;;;;;;;5053865;28;20615;-67
2024/01/02 13:18:26;;;;;;;7.70;6.95;;;;;;;;;;5053592;28;20037;-67
2024/01/02 13:20:53;;;;;;;7.10;6.60;;;;;;;;;;5060598;28;20043;-66
2024/01/02 13:23:18;;;;;;;7.22;6.82;;;;;;;;;;5053439;28;20036;-67
2024/01/02 13:25:44;;;;;;;7.40;6.80;;;;;;;;;;5062567;28;20037;-67
2024/01/02 13:28:20;;;;;;;7.25;6.72;;;;;;;;;;5052712;28;20218;-66
2024/01/02 13:30:47;;;;;;;15.82;8.65;;;;;;;;;;5055827;28;20041;-67
2024/01/02 13:33:16;;;;;;;7.20;6.55;;;;;;;;;;5050505;28;20075;-66
2024/01/02 13:35:47;;;;;;;;;;;;;;;;;;5053713;28;20041;-67
2024/01/02 13:38:14;;;;;;;6.80;6.45;;;;;;;;;;5044894;28;19926;-67
2024/01/02 13:40:41;;;;;;;8.05;7.30;;;;;;;;;;5053592;28;20037;-67
2024/01/02 13:43:10;;;;;;;6.30;6.00;;;;;;;;;;5051023;28;20056;-67
2024/01/02 13:45:36;;;;;;;6.32;6.03;;;;;;;;;;5052618;28;20048;-67
2024/01/02 13:48:15;;;;;;;6.20;5.90;;;;;;;;;;5041948;28;20040;-67
2024/01/02 13:50:42;;;;;;;6.88;6.50;;;;;;;;;;5050227;28;20741;-67
2024/01/02 13:53:09;;;;;;;7.15;6.68;;;;;;;;;;5050331;28;20037;-66
2024/01/02 13:55:37;;;;;;;6.68;6.38;;;;;;;;;;5048835;28;20044;-66
2024/01/02 13:58:22;;;;;;;6.88;6.57;;;;;;;;;;5048197;28;20055;-67
2024/01/02 14:00:49;;;;;;;7.43;6.65;;;;;;;;;;5049023;28;20764;-66
2024/01/02 14:03:18;;;;;;;7.38;6.97;;;;;;;;;;5051500;28;20048;-67
2024/01/02 14:05:58;;;;;;;6.80;6.50;;;;;;;;;;5048007;28;20066;-67
2024/01/02 14:08:25;;;;;;;;;;;;;;;;;;5051708;28;20425;-67
2024/01/02 14:10:52;;;;;;;6.95;6.55;;;;;;;;;;5052920;28;19912;-66
2024/01/02 14:13:29;;;;;;;6.95;6.55;;;;;;;;;;5051159;28;20041;-66
2024/01/02 14:16:04;;;;;;;7.40;6.78;;;;;;;;;;5050109;28;20041;-66
2024/01/02 14:18:33;;;;;;;6.90;6.50;;;;;;;;;;5046276;28;20478;-66
2024/01/02 14:21:13;;;;;;;14.70;7.38;;;;;;;;;;5051613;28;20177;-68
2024/01/02 14:24:08;;;;;;;7.65;6.93;;;;;;;;;;5053298;28;20036;-67
2024/01/02 14:26:52;;;;;;;21.55;7.10;;;;;;;;;;5030091;28;20044;-66
2024/01/02 14:29:23;;;;;;;21.58;8.02;;;;;;;;;;5051398;28;20127;-67
2024/01/02 14:32:01;;;;;;;6.38;6.07;;;;;;;;;;5042587;28;20068;-66
2024/01/02 14:35:13;;;;;;;7.25;6.75;;;;;;;;;;5045132;28;20045;-67
2024/01/02 14:38:10;;;;;;;6.47;6.18;;;;;;;;;;5042129;28;20185;-66
2024/01/02 14:40:50;;;;;;;6.60;6.18;;;;;;;;;;5043588;28;20040;-67
2024/01/02 14:43:48;;;;;;;6.60;6.30;;;;;;;;;;5046132;28;20068;-67
2024/01/02 14:46:34;;;;;;;7.20;6.80;;;;;;;;;;5048948;28;20793;-67
2024/01/02 14:49:32;;;;;;;7.20;6.80;;;;;;;;;;5041516;28;20052;-67
2024/01/02 14:52:01;;;;;;;6.47;6.18;;;;;;;;;;5043263;28;20160;-67
2024/01/02 14:54:36;;;;;;;7.35;6.85;;;;;;;;;;5045843;28;20036;-66
2024/01/02 14:57:19;;;;;;;6.60;6.30;;;;;;;;;;5047879;28;20037;-66
2024/01/02 14:59:51;;;;;;;6.90;6.50;;;;;;;;;;5047119;28;20040;-66
2024/01/02 15:02:28;;;;;;;7.13;6.72;;;;;;;;;;5066833;28;20116;-67
2024/01/02 15:05:23;;;;;;;7.07;6.57;;;;;;;;;;5044439;28;20040;-67
2024/01/02 15:07:57;;;;;;;6.88;6.50;;;;;;;;;;5047404;28;20144;-67
2024/01/02 15:10:28;;;;;;;7.30;6.90;;;;;;;;;;5047240;28;20052;-66
2024/01/02 15:13:15;;;;;;;7.00;6.60;;;;;;;;;;5049214;28;20072;-66
2024/01/02 15:16:23;;;;;;;7.47;7.07;;;;;;;;;;5045569;28;20872;-66
2024/01/02 15:19:03;;;;;;;6.32;6.03;;;;;;;;;;5046579;28;20090;-66
2024/01/02 15:21:47;;;;;;;6.75;6.35;;;;;;;;;;5047633;28;20481;-66